Time;durP1;ratioP1;P1;durP2;ratioP2;P2;SDS_P1;SDS_P2;PMS_P1;PMS_P2;Temp;Humidity;BMP_temperature;BMP_pressure;BME280_temperature;BME280_humidity;BME280_pressure;Samples;Min_cycle;Max_cycle;Signal;HPM_P1;HPM_P2
2023/07/23 00:00:26;;;;;;;11.80;5.13;;;15.40;99.90;;;;;;5066872;28;20128;-83
2023/07/23 00:02:52;;;;;;;10.60;4.68;;;15.30;99.90;;;;;;5073424;28;20457;-84
2023/07/23 00:05:17;;;;;;;12.30;4.93;;;15.30;99.90;;;;;;5074706;28;20120;-84
2023/07/23 00:07:43;;;;;;;11.05;4.55;;;15.30;99.90;;;;;;5071663;28;20048;-81
2023/07/23 00:10:09;;;;;;;9.02;4.63;;;15.30;99.90;;;;;;5055493;28;20492;-82
2023/07/23 00:12:35;;;;;;;11.05;4.50;;;15.30;99.90;;;;;;5054637;28;20105;-82
2023/07/23 00:15:02;;;;;;;10.32;4.97;;;15.40;99.90;;;;;;5082461;28;20116;-83
2023/07/23 00:17:28;;;;;;;7.68;4.13;;;15.30;99.90;;;;;;5053116;28;20045;-84
2023/07/23 00:19:53;;;;;;;9.32;5.03;;;15.30;99.90;;;;;;5071582;28;20040;-83
2023/07/23 00:22:19;;;;;;;12.52;5.57;;;15.30;99.90;;;;;;5051722;28;20098;-83
2023/07/23 00:24:45;;;;;;;9.93;4.70;;;15.40;99.90;;;;;;5053064;28;20207;-83
2023/07/23 00:27:13;;;;;;;9.50;4.93;;;15.30;99.90;;;;;;5056293;28;20148;-82
2023/07/23 00:29:42;;;;;;;11.30;4.55;;;15.30;99.90;;;;;;5073256;28;20493;-83
2023/07/23 00:32:08;;;;;;;8.85;4.78;;;15.30;99.90;;;;;;5070900;28;20040;-83
2023/07/23 00:34:34;;;;;;;10.25;5.32;;;15.30;99.90;;;;;;5053164;28;20481;-82
2023/07/23 00:36:59;;;;;;;11.60;5.10;;;15.30;99.90;;;;;;5054206;28;20041;-83
2023/07/23 00:39:25;;;;;;;11.40;5.70;;;15.30;99.90;;;;;;5066680;28;20040;-83
2023/07/23 00:41:51;;;;;;;9.68;5.25;;;15.30;99.90;;;;;;5089493;28;20128;-83
2023/07/23 00:44:16;;;;;;;9.68;4.32;;;15.20;99.90;;;;;;5053593;28;20116;-82
2023/07/23 00:46:42;;;;;;;9.82;5.18;;;15.20;99.90;;;;;;5053423;28;20037;-82
2023/07/23 00:49:10;;;;;;;9.50;4.93;;;15.30;99.90;;;;;;5071199;28;20045;-82
2023/07/23 00:51:35;;;;;;;9.43;5.07;;;15.20;99.90;;;;;;5089396;28;20102;-81
2023/07/23 00:54:03;;;;;;;11.35;5.10;;;15.20;99.90;;;;;;5055704;28;20041;-81
2023/07/23 00:56:29;;;;;;;9.77;5.55;;;15.20;99.90;;;;;;5053835;28;20044;-81
2023/07/23 00:58:55;;;;;;;10.48;5.18;;;15.10;99.90;;;;;;5052330;28;20124;-81
2023/07/23 01:01:21;;;;;;;10.90;5.38;;;15.10;99.90;;;;;;5067252;28;20041;-81
2023/07/23 01:03:46;;;;;;;10.23;5.65;;;15.10;99.90;;;;;;5060338;28;20041;-81
2023/07/23 01:06:13;;;;;;;10.50;4.78;;;15.10;99.90;;;;;;5070294;28;20064;-81
2023/07/23 01:08:41;;;;;;;10.25;4.82;;;15.10;99.90;;;;;;5073350;28;20507;-80
2023/07/23 01:11:07;;;;;;;11.27;5.97;;;15.10;99.90;;;;;;5073491;28;20037;-80
2023/07/23 01:13:35;;;;;;;9.48;4.97;;;15.20;99.90;;;;;;5059797;28;20401;-80
2023/07/23 01:16:07;;;;;;;10.25;4.95;;;15.10;99.90;;;;;;5068049;28;20543;-81
2023/07/23 01:18:37;;;;;;;10.63;6.03;;;15.10;99.90;;;;;;5053937;28;20050;-80
2023/07/23 01:21:03;;;;;;;10.98;5.43;;;15.10;99.90;;;;;;5073378;28;20074;-80
2023/07/23 01:23:28;;;;;;;10.23;5.00;;;15.10;99.90;;;;;;5073417;28;20435;-81
2023/07/23 01:25:54;;;;;;;10.73;5.43;;;15.10;99.90;;;;;;5070902;28;20102;-81
2023/07/23 01:28:20;;;;;;;11.88;5.50;;;15.10;99.90;;;;;;5052335;28;20423;-81
2023/07/23 01:30:45;;;;;;;10.20;5.60;;;15.10;99.90;;;;;;5069864;28;20044;-80
2023/07/23 01:33:12;;;;;;;9.18;5.00;;;15.10;99.90;;;;;;5073267;28;20473;-81
2023/07/23 01:35:38;;;;;;;10.40;5.80;;;15.20;99.90;;;;;;5073356;28;20485;-81
2023/07/23 01:38:04;;;;;;;11.00;5.47;;;15.10;99.90;;;;;;5070693;28;20158;-82
2023/07/23 01:40:30;;;;;;;11.65;4.88;;;15.10;99.90;;;;;;5072181;28;20040;-81
2023/07/23 01:42:56;;;;;;;9.35;5.07;;;15.10;99.90;;;;;;5073024;28;20041;-81
2023/07/23 01:45:21;;;;;;;9.63;5.07;;;15.10;99.90;;;;;;5072106;28;20059;-81
2023/07/23 01:47:47;;;;;;;11.23;5.38;;;15.10;99.90;;;;;;5070797;28;20033;-81
2023/07/23 01:50:13;;;;;;;8.75;4.32;;;15.10;99.90;;;;;;5071724;28;20484;-82
2023/07/23 01:52:38;;;;;;;8.30;4.57;;;15.10;99.90;;;;;;5071183;28;20040;-81
2023/07/23 01:55:04;;;;;;;8.73;4.28;;;15.10;99.90;;;;;;5072060;28;20547;-80
2023/07/23 01:57:30;;;;;;;8.35;4.22;;;15.10;99.90;;;;;;5063792;28;20120;-81
2023/07/23 01:59:56;;;;;;;8.65;4.38;;;15.10;99.90;;;;;;5052881;28;20073;-81
2023/07/23 02:02:21;;;;;;;7.57;3.88;;;15.20;99.90;;;;;;5051736;28;20393;-81
2023/07/23 02:04:47;;;;;;;10.02;4.35;;;15.20;99.90;;;;;;5052940;28;20092;-82
2023/07/23 02:07:14;;;;;;;9.48;4.70;;;15.20;99.90;;;;;;5058122;28;20401;-80
2023/07/23 02:09:40;;;;;;;9.45;4.57;;;15.20;99.90;;;;;;5072767;28;20040;-81
2023/07/23 02:12:06;;;;;;;8.85;4.00;;;15.10;99.90;;;;;;5070651;28;20033;-82
2023/07/23 02:14:31;;;;;;;8.02;4.15;;;15.10;99.90;;;;;;5071503;28;20040;-82
2023/07/23 02:16:57;;;;;;;8.68;4.25;;;15.10;99.90;;;;;;5053038;28;20037;-81
2023/07/23 02:19:22;;;;;;;7.95;4.35;;;15.10;99.90;;;;;;5072767;28;20181;-82
2023/07/23 02:21:48;;;;;;;8.30;4.53;;;15.10;99.90;;;;;;5071757;28;20044;-82
2023/07/23 02:24:13;;;;;;;9.65;4.45;;;15.10;99.90;;;;;;5069303;28;20044;-81
2023/07/23 02:26:39;;;;;;;10.10;4.47;;;15.10;99.90;;;;;;5054008;28;20477;-81
2023/07/23 02:29:04;;;;;;;10.27;4.22;;;15.00;99.90;;;;;;5076275;28;20409;-81
2023/07/23 02:31:30;;;;;;;9.25;4.68;;;15.00;99.90;;;;;;5076483;28;20401;-82
2023/07/23 02:33:56;;;;;;;9.55;4.95;;;15.00;99.90;;;;;;5076462;28;20400;-82
2023/07/23 02:36:21;;;;;;;9.15;5.00;;;15.00;99.90;;;;;;5076447;28;20094;-83
2023/07/23 02:38:47;;;;;;;9.68;4.75;;;15.00;99.90;;;;;;5075069;28;20123;-83
2023/07/23 02:41:13;;;;;;;9.10;5.30;;;15.00;99.90;;;;;;5076294;28;20090;-82
2023/07/23 02:43:38;;;;;;;9.75;5.43;;;15.00;99.90;;;;;;5074244;28;20094;-83
2023/07/23 02:46:04;;;;;;;10.10;5.05;;;15.10;99.90;;;;;;5076535;28;20048;-82
2023/07/23 02:48:29;;;;;;;9.82;5.28;;;15.00;99.90;;;;;;5072966;28;20051;-83
2023/07/23 02:50:55;;;;;;;8.77;4.88;;;15.00;99.90;;;;;;5076288;28;20508;-82
2023/07/23 02:53:20;;;;;;;10.98;5.55;;;15.00;99.90;;;;;;5091725;28;20382;-83
2023/07/23 02:55:46;;;;;;;10.05;5.60;;;15.00;99.90;;;;;;5074917;28;20121;-83
2023/07/23 02:58:12;;;;;;;10.35;5.65;;;15.00;99.90;;;;;;5074066;28;20111;-81
2023/07/23 03:00:39;;;;;;;10.38;5.30;;;15.00;99.90;;;;;;5074574;28;20040;-82
2023/07/23 03:03:08;;;;;;;10.57;5.70;;;15.00;99.90;;;;;;5074673;28;20052;-82
2023/07/23 03:05:35;;;;;;;10.20;5.30;;;15.00;99.90;;;;;;5075826;28;20040;-82
2023/07/23 03:08:02;;;;;;;9.38;5.38;;;15.10;99.90;;;;;;5073788;28;20028;-82
2023/07/23 03:10:29;;;;;;;12.00;5.45;;;15.00;99.90;;;;;;5075499;28;20116;-82
2023/07/23 03:12:54;;;;;;;10.23;6.03;;;15.00;99.90;;;;;;5074862;28;20076;-82
2023/07/23 03:15:21;;;;;;;10.98;6.45;;;15.00;99.90;;;;;;5075861;28;20429;-82
2023/07/23 03:17:46;;;;;;;12.52;6.38;;;15.00;99.90;;;;;;5062612;28;20041;-81
2023/07/23 03:20:13;;;;;;;11.50;5.85;;;15.00;99.90;;;;;;5068712;28;20104;-81
2023/07/23 03:22:39;;;;;;;11.63;6.28;;;15.00;99.90;;;;;;5075633;28;20044;-82
2023/07/23 03:25:05;;;;;;;11.68;6.18;;;15.00;99.90;;;;;;5075510;28;20076;-82
2023/07/23 03:27:30;;;;;;;10.18;6.43;;;15.00;99.90;;;;;;5064597;28;20088;-82
2023/07/23 03:29:56;;;;;;;11.30;6.72;;;15.00;99.90;;;;;;5053825;28;20041;-82
2023/07/23 03:32:21;;;;;;;10.80;6.55;;;15.00;99.90;;;;;;5062076;28;20589;-82
2023/07/23 03:34:47;;;;;;;12.70;6.72;;;15.00;99.90;;;;;;5090913;28;20048;-82
2023/07/23 03:37:12;;;;;;;11.10;6.53;;;15.00;99.90;;;;;;5072848;28;20032;-82
2023/07/23 03:39:38;;;;;;;11.15;6.82;;;15.00;99.90;;;;;;5073167;28;20040;-82
2023/07/23 03:42:06;;;;;;;11.38;6.70;;;15.00;99.90;;;;;;5073626;28;20039;-82
2023/07/23 03:44:32;;;;;;;12.55;6.47;;;15.00;99.90;;;;;;5056447;28;20045;-82
2023/07/23 03:47:12;;;;;;;11.05;5.95;;;15.00;99.90;;;;;;5069168;28;20392;-82
2023/07/23 03:49:37;;;;;;;10.63;6.57;;;15.00;99.90;;;;;;5054924;28;20033;-83
2023/07/23 03:52:04;;;;;;;10.93;6.32;;;15.00;99.90;;;;;;5057651;28;20533;-82
2023/07/23 03:54:30;;;;;;;10.77;5.93;;;15.00;99.90;;;;;;5057085;28;20041;-82
2023/07/23 03:56:56;;;;;;;10.95;6.50;;;15.00;99.90;;;;;;5072897;28;20035;-82
2023/07/23 03:59:21;;;;;;;10.55;6.13;;;15.00;99.90;;;;;;5056839;28;20455;-82
2023/07/23 04:01:47;;;;;;;9.55;5.65;;;15.00;99.90;;;;;;5073822;28;20036;-82
2023/07/23 04:04:13;;;;;;;11.32;6.32;;;15.00;99.90;;;;;;5073774;28;20070;-82
2023/07/23 04:06:39;;;;;;;9.98;6.18;;;15.10;99.90;;;;;;5067358;28;20032;-82
2023/07/23 04:09:04;;;;;;;10.98;6.25;;;15.00;99.90;;;;;;5088352;28;20056;-82
2023/07/23 04:11:30;;;;;;;12.00;5.82;;;15.10;99.90;;;;;;5071152;28;20040;-82
2023/07/23 04:13:55;;;;;;;12.50;6.15;;;15.10;99.90;;;;;;5073760;28;20085;-82
2023/07/23 04:16:21;;;;;;;10.55;6.15;;;15.10;99.90;;;;;;5073460;28;20040;-82
2023/07/23 04:18:51;;;;;;;10.13;5.60;;;15.10;99.90;;;;;;5071971;28;20051;-82
2023/07/23 04:21:24;;;;;;;9.40;5.60;;;15.10;99.90;;;;;;5073053;28;20500;-81
2023/07/23 04:23:50;;;;;;;11.60;5.97;;;15.10;99.90;;;;;;5073380;28;20059;-82
2023/07/23 04:26:18;;;;;;;10.70;5.97;;;15.10;99.90;;;;;;5073291;28;20410;-82
2023/07/23 04:28:44;;;;;;;11.32;5.85;;;15.10;99.90;;;;;;5053474;28;20064;-82
2023/07/23 04:31:10;;;;;;;10.63;6.13;;;15.00;99.90;;;;;;5054207;28;20069;-82
2023/07/23 04:33:36;;;;;;;10.65;5.40;;;15.10;99.90;;;;;;5053701;28;20033;-82
2023/07/23 04:36:03;;;;;;;11.55;6.82;;;15.10;99.90;;;;;;5054110;28;20452;-82
2023/07/23 04:38:29;;;;;;;10.10;5.70;;;15.10;99.90;;;;;;5052383;28;20428;-82
2023/07/23 04:40:54;;;;;;;12.38;6.55;;;15.10;99.90;;;;;;5054210;28;20045;-83
2023/07/23 04:43:20;;;;;;;12.57;6.35;;;15.10;99.90;;;;;;5052773;28;20504;-82
2023/07/23 04:45:45;;;;;;;14.10;6.97;;;15.10;99.90;;;;;;5053521;28;20037;-82
2023/07/23 04:48:12;;;;;;;12.70;6.32;;;15.10;99.90;;;;;;5053946;28;20045;-82
2023/07/23 04:50:38;;;;;;;10.52;6.25;;;15.10;99.90;;;;;;5053671;28;20103;-82
2023/07/23 04:53:03;;;;;;;11.02;5.88;;;15.10;99.90;;;;;;5065471;28;20032;-82
2023/07/23 04:55:29;;;;;;;11.52;7.03;;;15.10;99.90;;;;;;5055202;28;20044;-82
2023/07/23 04:57:55;;;;;;;13.00;7.05;;;15.10;99.90;;;;;;5052498;28;20460;-82
2023/07/23 05:00:21;;;;;;;11.52;6.60;;;15.10;99.90;;;;;;5053673;28;20045;-82
2023/07/23 05:02:46;;;;;;;10.77;6.63;;;15.10;99.90;;;;;;5063746;28;20385;-82
2023/07/23 05:05:12;;;;;;;11.90;7.15;;;15.10;99.90;;;;;;5067272;28;20141;-82
2023/07/23 05:07:39;;;;;;;10.77;7.13;;;15.10;99.90;;;;;;5068351;28;20029;-81
2023/07/23 05:10:05;;;;;;;14.68;7.50;;;15.10;99.90;;;;;;5064140;28;20048;-81
2023/07/23 05:12:30;;;;;;;12.23;7.78;;;15.10;99.90;;;;;;5053048;28;20112;-81
2023/07/23 05:15:11;;;;;;;10.93;6.65;;;15.10;99.90;;;;;;5068986;28;20182;-82
2023/07/23 05:17:37;;;;;;;11.02;6.20;;;15.10;99.90;;;;;;5062089;28;20040;-82
2023/07/23 05:20:05;;;;;;;13.93;7.40;;;15.20;99.90;;;;;;5072035;28;20480;-82
2023/07/23 05:22:31;;;;;;;10.68;7.07;;;15.20;99.90;;;;;;5070803;28;20040;-82
2023/07/23 05:24:57;;;;;;;12.68;7.28;;;15.30;99.90;;;;;;5063022;28;20055;-82
2023/07/23 05:27:23;;;;;;;11.93;7.13;;;15.30;99.90;;;;;;5061314;28;20040;-81
2023/07/23 05:29:48;;;;;;;12.88;7.95;;;15.40;99.90;;;;;;5051786;28;20045;-81
2023/07/23 05:32:14;;;;;;;11.23;6.55;;;15.30;99.90;;;;;;5057358;28;20354;-82
2023/07/23 05:34:40;;;;;;;12.30;6.43;;;15.40;99.90;;;;;;5067751;28;20045;-81
2023/07/23 05:37:06;;;;;;;11.35;7.28;;;15.50;99.90;;;;;;5066967;28;20124;-82
2023/07/23 05:39:32;;;;;;;12.10;7.35;;;15.50;99.90;;;;;;5057006;28;20394;-82
2023/07/23 05:41:57;;;;;;;12.43;7.22;;;15.40;99.90;;;;;;5053365;28;20079;-82
2023/07/23 05:44:25;;;;;;;13.32;7.60;;;15.30;99.90;;;;;;5067615;28;20045;-82
2023/07/23 05:46:51;;;;;;;10.73;7.53;;;15.30;99.90;;;;;;5068596;28;20044;-83
2023/07/23 05:49:16;;;;;;;13.10;7.88;;;15.30;99.90;;;;;;5073503;28;20051;-82
2023/07/23 05:51:42;;;;;;;12.10;7.50;;;15.30;99.90;;;;;;5067093;28;20480;-82
2023/07/23 05:54:07;;;;;;;12.60;7.18;;;15.20;99.90;;;;;;5055702;28;20036;-82
2023/07/23 05:56:33;;;;;;;11.02;7.32;;;15.30;99.90;;;;;;5069123;28;20036;-83
2023/07/23 05:58:58;;;;;;;13.13;7.25;;;15.40;99.90;;;;;;5062127;28;20036;-82
2023/07/23 06:01:24;;;;;;;10.95;6.57;;;15.40;99.90;;;;;;5056238;28;20131;-73
2023/07/23 06:03:50;;;;;;;12.32;7.13;;;15.50;99.90;;;;;;5071333;28;20040;-72
2023/07/23 06:06:15;;;;;;;12.07;6.97;;;15.60;99.90;;;;;;5077185;28;20044;-73
2023/07/23 06:08:41;;;;;;;10.73;6.13;;;15.70;99.90;;;;;;5073553;28;20032;-72
2023/07/23 06:11:06;;;;;;;11.32;7.32;;;15.70;99.90;;;;;;5076212;28;20048;-72
2023/07/23 06:13:32;;;;;;;12.00;6.57;;;15.80;99.90;;;;;;5076033;28;20040;-71
2023/07/23 06:15:57;;;;;;;13.23;7.93;;;15.70;99.90;;;;;;5071021;28;20028;-72
2023/07/23 06:18:23;;;;;;;12.57;7.57;;;15.70;99.90;;;;;;5075221;28;20504;-71
2023/07/23 06:20:49;;;;;;;14.27;7.68;;;15.70;99.90;;;;;;5066506;28;20485;-72
2023/07/23 06:23:14;;;;;;;11.63;6.45;;;15.70;99.90;;;;;;5077065;28;20440;-74
2023/07/23 06:25:40;;;;;;;13.90;8.23;;;15.80;99.90;;;;;;5074534;28;20072;-74
2023/07/23 06:28:06;;;;;;;11.82;7.43;;;15.90;99.90;;;;;;5083216;28;20048;-73
2023/07/23 06:30:33;;;;;;;11.07;7.50;;;15.90;99.90;;;;;;5070264;28;20060;-81
2023/07/23 06:32:59;;;;;;;14.38;8.20;;;16.10;99.90;;;;;;5064813;28;20020;-82
2023/07/23 06:35:24;;;;;;;14.40;8.32;;;16.00;99.90;;;;;;5067629;28;20314;-82
2023/07/23 06:37:50;;;;;;;11.95;7.63;;;15.90;99.90;;;;;;5061388;28;20048;-82
2023/07/23 06:40:16;;;;;;;12.57;7.82;;;15.90;99.90;;;;;;5073577;28;20131;-82
2023/07/23 06:42:41;;;;;;;11.98;8.07;;;15.80;99.90;;;;;;5075162;28;20127;-82
2023/07/23 06:45:08;;;;;;;12.55;8.23;;;15.90;99.90;;;;;;5074594;28;20071;-82
2023/07/23 06:47:34;;;;;;;12.02;8.27;;;15.90;99.90;;;;;;5075993;28;20485;-82
2023/07/23 06:50:00;;;;;;;13.23;7.80;;;15.80;99.90;;;;;;5074838;28;20148;-82
2023/07/23 06:52:26;;;;;;;13.75;8.63;;;15.90;99.90;;;;;;5068085;28;20048;-82
2023/07/23 06:54:51;;;;;;;14.13;8.10;;;15.80;99.90;;;;;;5063572;28;20033;-82
2023/07/23 06:57:17;;;;;;;13.13;7.32;;;15.80;99.90;;;;;;5066337;28;20043;-82
2023/07/23 06:59:43;;;;;;;13.02;7.32;;;15.90;99.90;;;;;;5061721;28;20044;-82
2023/07/23 07:02:08;;;;;;;13.90;7.65;;;15.90;99.90;;;;;;5067605;28;20083;-82
2023/07/23 07:04:34;;;;;;;11.85;7.30;;;15.90;99.90;;;;;;5060172;28;20036;-82
2023/07/23 07:06:59;;;;;;;13.80;7.45;;;15.90;99.90;;;;;;5064530;28;20481;-82
2023/07/23 07:09:25;;;;;;;15.82;7.30;;;15.90;99.90;;;;;;5061318;28;20063;-81
2023/07/23 07:11:51;;;;;;;13.52;7.60;;;15.90;99.90;;;;;;5067366;28;20033;-82
2023/07/23 07:14:16;;;;;;;13.20;7.63;;;15.80;99.90;;;;;;5080211;28;20115;-82
2023/07/23 07:16:42;;;;;;;11.68;8.13;;;15.90;99.90;;;;;;5064649;28;20045;-82
2023/07/23 07:19:07;;;;;;;12.63;7.55;;;15.90;99.90;;;;;;5053948;28;20048;-81
2023/07/23 07:21:33;;;;;;;11.82;7.05;;;15.90;99.90;;;;;;5060741;28;20055;-82
2023/07/23 07:23:58;;;;;;;13.18;7.13;;;15.90;99.90;;;;;;5063167;28;20042;-81
2023/07/23 07:26:24;;;;;;;12.07;7.40;;;16.10;99.90;;;;;;5071983;28;20044;-81
2023/07/23 07:28:51;;;;;;;16.65;8.02;;;16.00;99.90;;;;;;5074477;28;20133;-82
2023/07/23 07:31:17;;;;;;;14.20;7.85;;;16.00;99.90;;;;;;5065121;28;20046;-82
2023/07/23 07:33:44;;;;;;;14.23;8.27;;;16.10;99.90;;;;;;5053908;28;20128;-82
2023/07/23 07:36:10;;;;;;;13.93;8.07;;;16.10;99.90;;;;;;5063233;28;20523;-81
2023/07/23 07:38:35;;;;;;;13.10;8.18;;;16.10;99.90;;;;;;5060582;28;20451;-83
2023/07/23 07:41:01;;;;;;;13.73;7.88;;;16.10;99.90;;;;;;5063820;28;20072;-81
2023/07/23 07:43:27;;;;;;;16.20;8.30;;;16.20;99.90;;;;;;5068611;28;20074;-81
2023/07/23 07:45:58;;;;;;;14.57;8.38;;;16.10;99.90;;;;;;5066120;28;20032;-82
2023/07/23 07:48:23;;;;;;;13.30;7.53;;;16.20;99.90;;;;;;5061626;28;20465;-82
2023/07/23 07:51:04;;;;;;;13.80;7.70;;;16.30;99.90;;;;;;5052417;28;20061;-81
2023/07/23 07:53:31;;;;;;;12.68;7.35;;;16.30;99.90;;;;;;5054174;28;20044;-82
2023/07/23 07:55:58;;;;;;;12.82;7.20;;;16.20;99.90;;;;;;5057206;28;20045;-82
2023/07/23 07:58:27;;;;;;;14.00;7.85;;;16.30;99.90;;;;;;5062161;28;20045;-81
2023/07/23 08:01:02;;;;;;;14.05;7.57;;;16.30;99.90;;;;;;5058303;28;20032;-81
2023/07/23 08:03:29;;;;;;;13.48;7.55;;;16.30;99.90;;;;;;5072014;28;20556;-81
2023/07/23 08:05:56;;;;;;;12.88;8.20;;;16.30;99.90;;;;;;5071289;28;20044;-82
2023/07/23 08:08:35;;;;;;;11.32;7.65;;;16.30;99.90;;;;;;5069604;28;20041;-80
2023/07/23 08:11:04;;;;;;;11.98;7.00;;;16.30;99.90;;;;;;5071104;28;20059;-82
2023/07/23 08:13:30;;;;;;;12.63;7.78;;;16.30;99.90;;;;;;5050435;28;20123;-81
2023/07/23 08:15:56;;;;;;;12.60;7.15;;;16.30;99.90;;;;;;5060726;28;20116;-82
2023/07/23 08:18:22;;;;;;;12.65;7.35;;;16.30;99.90;;;;;;5060648;28;20037;-83
2023/07/23 08:20:48;;;;;;;14.13;8.13;;;16.30;99.90;;;;;;5061605;28;20051;-83
2023/07/23 08:23:14;;;;;;;14.77;8.32;;;16.20;99.90;;;;;;5068169;28;20044;-82
2023/07/23 08:25:41;;;;;;;11.40;6.93;;;16.20;99.90;;;;;;5058824;28;20071;-83
2023/07/23 08:28:08;;;;;;;12.25;7.40;;;16.20;99.90;;;;;;5070757;28;20057;-82
2023/07/23 08:30:34;;;;;;;12.05;7.15;;;16.20;99.90;;;;;;5053683;28;20045;-83
2023/07/23 08:33:01;;;;;;;12.70;7.68;;;16.20;99.90;;;;;;5061295;28;20507;-82
2023/07/23 08:35:28;;;;;;;10.60;6.55;;;16.20;99.90;;;;;;5057260;28;20048;-82
2023/07/23 08:37:55;;;;;;;11.93;6.90;;;16.20;99.90;;;;;;5038046;28;20038;-82
2023/07/23 08:40:23;;;;;;;10.10;6.80;;;16.10;99.90;;;;;;5056724;28;20127;-82
2023/07/23 08:43:17;;;;;;;13.68;7.03;;;16.20;99.90;;;;;;5052388;28;20041;-82
2023/07/23 08:46:21;;;;;;;11.77;6.80;;;16.20;99.90;;;;;;5070359;28;20082;-83
2023/07/23 08:48:58;;;;;;;10.52;6.72;;;16.20;99.90;;;;;;5054583;28;20489;-84
2023/07/23 08:51:38;;;;;;;12.02;6.95;;;16.30;99.90;;;;;;5050517;28;20382;-84
2023/07/23 08:54:06;;;;;;;11.25;5.75;;;16.30;99.90;;;;;;5060331;28;20190;-84
2023/07/23 08:56:33;;;;;;;10.55;6.20;;;16.30;99.90;;;;;;5036108;28;20041;-83
2023/07/23 08:59:01;;;;;;;10.70;6.07;;;16.30;99.90;;;;;;5059545;28;20119;-84
2023/07/23 09:01:32;;;;;;;10.68;6.22;;;16.30;99.90;;;;;;5058468;28;20047;-85
2023/07/23 09:03:58;;;;;;;10.98;6.32;;;16.30;99.90;;;;;;5062421;28;20060;-84
2023/07/23 09:06:25;;;;;;;12.27;7.10;;;16.20;99.90;;;;;;5051586;28;20037;-85
2023/07/23 09:08:51;;;;;;;13.32;6.03;;;16.30;99.90;;;;;;5058002;28;20178;-86
2023/07/23 09:11:17;;;;;;;11.48;7.13;;;16.20;99.90;;;;;;5058767;28;20040;-86
2023/07/23 09:13:43;;;;;;;12.07;6.53;;;16.20;99.90;;;;;;5045394;28;20032;-85
2023/07/23 09:16:09;;;;;;;11.20;6.35;;;16.10;99.90;;;;;;5052047;28;20037;-86
2023/07/23 09:18:41;;;;;;;11.23;6.57;;;16.30;99.90;;;;;;5057497;28;20036;-86
2023/07/23 09:21:09;;;;;;;12.32;6.45;;;16.20;99.90;;;;;;5060194;28;20098;-85
2023/07/23 09:23:34;;;;;;;10.25;6.25;;;16.30;99.90;;;;;;5058157;28;20071;-84
2023/07/23 09:26:00;;;;;;;9.50;5.72;;;16.30;99.90;;;;;;5038466;28;20080;-85
2023/07/23 09:28:26;;;;;;;10.77;6.10;;;16.30;99.90;;;;;;5065172;28;20551;-86
2023/07/23 09:30:58;;;;;;;11.68;6.60;;;16.30;99.90;;;;;;5057251;28;20076;-86
2023/07/23 09:33:34;;;;;;;12.05;6.00;;;16.40;99.90;;;;;;5060386;28;20033;-85
2023/07/23 09:36:02;;;;;;;9.65;6.07;;;16.40;99.90;;;;;;5062056;28;20558;-86
2023/07/23 09:38:28;;;;;;;11.23;6.47;;;16.50;99.90;;;;;;5052886;28;20037;-86
2023/07/23 09:40:55;;;;;;;9.88;6.15;;;16.50;99.90;;;;;;5070324;28;20074;-86
2023/07/23 09:43:24;;;;;;;11.63;6.43;;;16.50;99.90;;;;;;5050757;28;20119;-86
2023/07/23 09:45:51;;;;;;;12.13;6.15;;;16.50;99.90;;;;;;5067862;28;20401;-87
2023/07/23 09:48:17;;;;;;;10.95;5.75;;;16.40;99.90;;;;;;5077440;28;20061;-86
2023/07/23 09:50:44;;;;;;;11.38;5.65;;;16.40;99.90;;;;;;5051023;28;20512;-86
2023/07/23 09:53:12;;;;;;;8.35;5.38;;;16.50;99.90;;;;;;5040397;28;20041;-87
2023/07/23 09:55:39;;;;;;;9.32;5.97;;;16.50;99.90;;;;;;5050121;28;20167;-86
2023/07/23 09:58:06;;;;;;;9.50;6.07;;;16.50;99.90;;;;;;5058317;28;20123;-87
2023/07/23 10:00:33;;;;;;;9.32;5.60;;;16.40;99.90;;;;;;5056869;28;20079;-86
2023/07/23 10:03:00;;;;;;;11.20;5.60;;;16.50;99.90;;;;;;5052234;28;20089;-86
2023/07/23 10:05:26;;;;;;;9.50;5.70;;;16.50;99.90;;;;;;5070711;28;20045;-87
2023/07/23 10:07:53;;;;;;;9.88;5.93;;;16.40;99.90;;;;;;5040314;28;20033;-87
2023/07/23 10:10:19;;;;;;;9.55;5.53;;;16.40;99.90;;;;;;5054183;28;20044;-86
2023/07/23 10:12:45;;;;;;;9.45;5.30;;;16.40;99.90;;;;;;5041798;28;20501;-87
2023/07/23 10:15:11;;;;;;;9.40;5.75;;;16.40;99.90;;;;;;5052687;28;20033;-87
2023/07/23 10:17:44;;;;;;;10.27;5.60;;;16.50;99.90;;;;;;5063702;28;20203;-87
2023/07/23 10:20:12;;;;;;;9.38;5.65;;;16.50;99.90;;;;;;5047998;28;20400;-87
2023/07/23 10:22:39;;;;;;;9.40;5.53;;;16.50;99.90;;;;;;5065563;28;20062;-88
2023/07/23 10:25:25;;;;;;;10.57;5.45;;;16.60;99.90;;;;;;5045906;28;20040;-87
2023/07/23 10:27:56;;;;;;;9.00;5.03;;;16.60;99.90;;;;;;5062026;28;20527;-87
2023/07/23 10:30:23;;;;;;;10.77;6.07;;;16.60;99.90;;;;;;5063330;28;20610;-87
2023/07/23 10:33:11;;;;;;;10.25;5.85;;;16.50;99.90;;;;;;5041336;28;20052;-86
2023/07/23 10:35:52;;;;;;;9.60;5.63;;;16.50;99.90;;;;;;5078378;28;20455;-87
2023/07/23 10:38:27;;;;;;;11.55;5.20;;;16.50;99.90;;;;;;5056375;28;20039;-87
2023/07/23 10:40:53;;;;;;;11.45;5.65;;;16.50;99.90;;;;;;5055941;28;20401;-87
2023/07/23 10:43:19;;;;;;;9.48;4.68;;;16.60;99.90;;;;;;5053073;28;20386;-87
2023/07/23 10:46:05;;;;;;;10.15;4.88;;;16.60;99.90;;;;;;5051969;28;20051;-86
2023/07/23 10:48:38;;;;;;;9.50;5.63;;;16.60;99.90;;;;;;5068266;28;20036;-86
2023/07/23 10:51:07;;;;;;;9.60;5.57;;;16.60;99.90;;;;;;5065414;28;20067;-86
2023/07/23 10:53:33;;;;;;;8.55;5.00;;;16.70;99.90;;;;;;5054002;28;20082;-86
2023/07/23 10:56:02;;;;;;;9.85;5.40;;;16.70;99.90;;;;;;5093769;28;20040;-86
2023/07/23 10:58:41;;;;;;;9.15;5.47;;;16.70;99.90;;;;;;5055139;28;20033;-85
2023/07/23 11:01:07;;;;;;;9.25;5.22;;;16.70;99.90;;;;;;5054154;28;20546;-86
2023/07/23 11:03:34;;;;;;;8.52;5.88;;;16.70;99.90;;;;;;5037479;28;20080;-86
2023/07/23 11:06:03;;;;;;;8.32;5.57;;;16.70;99.90;;;;;;5063120;28;20103;-87
2023/07/23 11:08:29;;;;;;;8.10;4.68;;;16.80;99.90;;;;;;5047313;28;20040;-86
2023/07/23 11:11:01;;;;;;;11.65;5.55;;;16.80;99.90;;;;;;5070735;28;20040;-87
2023/07/23 11:13:30;;;;;;;9.63;5.40;;;16.90;99.90;;;;;;5056195;28;20036;-87
2023/07/23 11:15:56;;;;;;;8.45;5.68;;;16.90;99.90;;;;;;5064533;28;20127;-87
2023/07/23 11:18:23;;;;;;;8.93;5.65;;;16.80;99.90;;;;;;5061115;28;20182;-87
2023/07/23 11:20:50;;;;;;;10.00;5.03;;;16.90;99.90;;;;;;5074648;28;20393;-88
2023/07/23 11:23:19;;;;;;;9.13;5.78;;;16.90;99.90;;;;;;5062070;28;20122;-88
2023/07/23 11:25:45;;;;;;;9.30;5.38;;;16.90;99.90;;;;;;5063665;28;20128;-87
2023/07/23 11:28:10;;;;;;;9.13;5.93;;;16.90;99.90;;;;;;5075238;28;20560;-87
2023/07/23 11:30:36;;;;;;;9.18;5.55;;;16.90;99.90;;;;;;5058151;28;20045;-87
2023/07/23 11:33:03;;;;;;;11.70;6.10;;;16.90;99.90;;;;;;5064641;28;20409;-86
2023/07/23 11:35:30;;;;;;;10.75;6.18;;;16.90;99.90;;;;;;5053065;28;20033;-87
2023/07/23 11:38:03;;;;;;;9.15;5.65;;;16.90;99.90;;;;;;5057287;28;20064;-87
2023/07/23 11:40:29;;;;;;;14.13;6.60;;;16.90;99.90;;;;;;5054801;28;20083;-87
2023/07/23 11:42:55;;;;;;;9.43;5.40;;;17.00;99.90;;;;;;5055644;28;20079;-87
2023/07/23 11:45:21;;;;;;;8.57;5.57;;;17.00;99.90;;;;;;5062292;28;20064;-87
2023/07/23 11:47:50;;;;;;;10.88;5.72;;;17.00;99.90;;;;;;5055267;28;20493;-87
2023/07/23 11:50:16;;;;;;;10.80;6.00;;;16.90;99.90;;;;;;5053944;28;20489;-87
2023/07/23 11:52:42;;;;;;;9.35;5.78;;;16.90;99.90;;;;;;5053719;28;20037;-87
2023/07/23 11:55:26;;;;;;;11.02;5.82;;;17.00;99.90;;;;;;5068917;28;20033;-88
2023/07/23 11:57:54;;;;;;;10.75;5.88;;;17.00;99.90;;;;;;5065399;28;20035;-87
2023/07/23 12:00:27;;;;;;;8.80;5.57;;;17.00;99.90;;;;;;5061424;28;20047;-87
2023/07/23 12:02:54;;;;;;;9.40;6.15;;;17.00;99.90;;;;;;5054678;28;20036;-87
2023/07/23 12:05:20;;;;;;;9.13;5.15;;;17.00;99.90;;;;;;5054725;28;20043;-87
2023/07/23 12:07:46;;;;;;;10.32;6.22;;;17.00;99.90;;;;;;5058485;28;20072;-86
2023/07/23 12:10:15;;;;;;;10.98;6.63;;;17.00;99.90;;;;;;5045172;28;20069;-86
2023/07/23 12:12:48;;;;;;;8.30;5.25;;;16.90;99.90;;;;;;5053925;28;20389;-86
2023/07/23 12:15:14;;;;;;;8.82;5.75;;;17.00;99.90;;;;;;5042358;28;20563;-86
2023/07/23 12:17:44;;;;;;;9.15;5.40;;;17.00;99.90;;;;;;5070479;28;20500;-85
2023/07/23 12:20:15;;;;;;;10.50;5.82;;;17.00;99.90;;;;;;5061498;28;20048;-85
2023/07/23 12:22:52;;;;;;;11.60;5.82;;;17.00;99.90;;;;;;5062245;28;20040;-86
2023/07/23 12:25:18;;;;;;;9.05;4.93;;;17.00;99.90;;;;;;5052855;28;20155;-86
2023/07/23 12:27:44;;;;;;;9.25;5.50;;;17.10;99.90;;;;;;5053182;28;20057;-86
2023/07/23 12:30:10;;;;;;;10.63;5.47;;;17.10;99.90;;;;;;5062231;28;20055;-86
2023/07/23 12:32:35;;;;;;;8.68;5.65;;;17.10;99.90;;;;;;5058161;28;20049;-87
2023/07/23 12:35:01;;;;;;;8.77;5.40;;;17.20;99.90;;;;;;5066428;28;20120;-88
2023/07/23 12:37:27;;;;;;;10.45;5.85;;;17.30;99.90;;;;;;5068826;28;20040;-86
2023/07/23 12:39:55;;;;;;;9.15;4.85;;;17.30;99.90;;;;;;5059832;28;20079;-86